sensor_id;sensor_type;location;lat;lon;timestamp;P1;durP1;ratioP1;P2;durP2;ratioP2
76152;SDS011;64897;50.816;4.422;2023-05-10T00:01:14;12.50;;;6.93;;
76152;SDS011;64897;50.816;4.422;2023-05-10T00:04:01;9.70;;;6.03;;
76152;SDS011;64897;50.816;4.422;2023-05-10T00:06:49;11.82;;;6.50;;
76152;SDS011;64897;50.816;4.422;2023-05-10T00:09:35;15.88;;;7.03;;
76152;SDS011;64897;50.816;4.422;2023-05-10T00:12:23;12.52;;;6.47;;
76152;SDS011;64897;50.816;4.422;2023-05-10T00:15:10;8.63;;;5.97;;
76152;SDS011;64897;50.816;4.422;2023-05-10T00:17:57;15.10;;;7.57;;
76152;SDS011;64897;50.816;4.422;2023-05-10T00:20:44;12.57;;;7.40;;
76152;SDS011;64897;50.816;4.422;2023-05-10T00:23:31;14.80;;;7.13;;
76152;SDS011;64897;50.816;4.422;2023-05-10T00:26:19;12.82;;;7.43;;
76152;SDS011;64897;50.816;4.422;2023-05-10T00:29:11;13.27;;;7.55;;
76152;SDS011;64897;50.816;4.422;2023-05-10T00:31:58;15.43;;;6.85;;
76152;SDS011;64897;50.816;4.422;2023-05-10T00:34:45;13.18;;;7.68;;
76152;SDS011;64897;50.816;4.422;2023-05-10T00:37:31;12.05;;;6.50;;
76152;SDS011;64897;50.816;4.422;2023-05-10T00:40:19;13.57;;;8.57;;
76152;SDS011;64897;50.816;4.422;2023-05-10T00:43:11;14.88;;;8.02;;
76152;SDS011;64897;50.816;4.422;2023-05-10T00:45:59;12.90;;;7.03;;
76152;SDS011;64897;50.816;4.422;2023-05-10T00:48:46;10.55;;;7.97;;
76152;SDS011;64897;50.816;4.422;2023-05-10T00:51:33;15.45;;;8.38;;
76152;SDS011;64897;50.816;4.422;2023-05-10T00:54:20;17.10;;;7.90;;
76152;SDS011;64897;50.816;4.422;2023-05-10T00:57:09;13.65;;;7.63;;
76152;SDS011;64897;50.816;4.422;2023-05-10T00:59:58;14.63;;;8.25;;
76152;SDS011;64897;50.816;4.422;2023-05-10T01:02:49;13.23;;;8.50;;
76152;SDS011;64897;50.816;4.422;2023-05-10T01:05:36;11.60;;;6.85;;
76152;SDS011;64897;50.816;4.422;2023-05-10T01:08:23;17.80;;;8.48;;
76152;SDS011;64897;50.816;4.422;2023-05-10T01:11:10;16.00;;;8.45;;
76152;SDS011;64897;50.816;4.422;2023-05-10T01:13:57;15.20;;;7.57;;
76152;SDS011;64897;50.816;4.422;2023-05-10T01:16:45;16.48;;;8.30;;
76152;SDS011;64897;50.816;4.422;2023-05-10T01:19:35;17.90;;;8.68;;
76152;SDS011;64897;50.816;4.422;2023-05-10T01:22:29;12.90;;;7.03;;
76152;SDS011;64897;50.816;4.422;2023-05-10T01:29:11;12.82;;;7.10;;
76152;SDS011;64897;50.816;4.422;2023-05-10T01:35:03;17.13;;;9.18;;
76152;SDS011;64897;50.816;4.422;2023-05-10T01:37:57;20.90;;;9.57;;
76152;SDS011;64897;50.816;4.422;2023-05-10T01:40:55;14.27;;;7.75;;
76152;SDS011;64897;50.816;4.422;2023-05-10T01:43:54;16.23;;;8.52;;
76152;SDS011;64897;50.816;4.422;2023-05-10T01:46:48;15.27;;;7.55;;
76152;SDS011;64897;50.816;4.422;2023-05-10T01:49:45;13.68;;;8.50;;
76152;SDS011;64897;50.816;4.422;2023-05-10T01:52:36;19.83;;;9.43;;
76152;SDS011;64897;50.816;4.422;2023-05-10T01:55:29;17.50;;;9.38;;
76152;SDS011;64897;50.816;4.422;2023-05-10T01:58:21;13.90;;;8.18;;
76152;SDS011;64897;50.816;4.422;2023-05-10T02:01:13;15.05;;;8.85;;
76152;SDS011;64897;50.816;4.422;2023-05-10T02:04:00;13.55;;;8.18;;
76152;SDS011;64897;50.816;4.422;2023-05-10T02:06:49;14.60;;;9.13;;
76152;SDS011;64897;50.816;4.422;2023-05-10T02:09:39;15.20;;;8.82;;
76152;SDS011;64897;50.816;4.422;2023-05-10T02:12:31;15.40;;;8.25;;
76152;SDS011;64897;50.816;4.422;2023-05-10T02:15:22;16.02;;;9.82;;
76152;SDS011;64897;50.816;4.422;2023-05-10T02:18:10;14.00;;;8.13;;
76152;SDS011;64897;50.816;4.422;2023-05-10T02:20:58;13.57;;;8.60;;
76152;SDS011;64897;50.816;4.422;2023-05-10T02:23:48;15.30;;;8.65;;
76152;SDS011;64897;50.816;4.422;2023-05-10T02:26:39;14.93;;;8.60;;
76152;SDS011;64897;50.816;4.422;2023-05-10T02:29:27;13.27;;;8.43;;
76152;SDS011;64897;50.816;4.422;2023-05-10T02:32:17;17.85;;;9.43;;
76152;SDS011;64897;50.816;4.422;2023-05-10T02:35:05;18.67;;;8.70;;
76152;SDS011;64897;50.816;4.422;2023-05-10T02:37:54;15.90;;;8.80;;
76152;SDS011;64897;50.816;4.422;2023-05-10T02:40:43;17.10;;;8.07;;
76152;SDS011;64897;50.816;4.422;2023-05-10T02:43:32;14.68;;;8.52;;
76152;SDS011;64897;50.816;4.422;2023-05-10T02:46:21;13.70;;;8.23;;
76152;SDS011;64897;50.816;4.422;2023-05-10T02:49:08;13.93;;;7.03;;
76152;SDS011;64897;50.816;4.422;2023-05-10T02:51:56;15.45;;;7.65;;
76152;SDS011;64897;50.816;4.422;2023-05-10T02:54:49;14.02;;;7.72;;
76152;SDS011;64897;50.816;4.422;2023-05-10T02:57:43;11.73;;;7.15;;
76152;SDS011;64897;50.816;4.422;2023-05-10T03:00:36;13.68;;;7.75;;
76152;SDS011;64897;50.816;4.422;2023-05-10T03:03:23;12.20;;;7.55;;
76152;SDS011;64897;50.816;4.422;2023-05-10T03:06:11;13.43;;;7.72;;
76152;SDS011;64897;50.816;4.422;2023-05-10T03:08:58;14.20;;;7.57;;
76152;SDS011;64897;50.816;4.422;2023-05-10T03:11:50;11.90;;;7.45;;
76152;SDS011;64897;50.816;4.422;2023-05-10T03:14:53;15.32;;;6.40;;
76152;SDS011;64897;50.816;4.422;2023-05-10T03:17:52;10.55;;;6.90;;
76152;SDS011;64897;50.816;4.422;2023-05-10T03:20:43;14.27;;;7.65;;
76152;SDS011;64897;50.816;4.422;2023-05-10T03:23:34;12.55;;;7.65;;
76152;SDS011;64897;50.816;4.422;2023-05-10T03:26:27;11.00;;;6.80;;
76152;SDS011;64897;50.816;4.422;2023-05-10T03:29:27;12.63;;;6.97;;
76152;SDS011;64897;50.816;4.422;2023-05-10T03:32:16;14.82;;;7.80;;
76152;SDS011;64897;50.816;4.422;2023-05-10T03:35:06;18.08;;;8.80;;
76152;SDS011;64897;50.816;4.422;2023-05-10T03:37:53;13.13;;;7.90;;
76152;SDS011;64897;50.816;4.422;2023-05-10T03:40:40;14.93;;;9.15;;
76152;SDS011;64897;50.816;4.422;2023-05-10T03:43:27;18.75;;;10.30;;
76152;SDS011;64897;50.816;4.422;2023-05-10T03:46:13;17.40;;;9.55;;
76152;SDS011;64897;50.816;4.422;2023-05-10T03:49:02;17.45;;;8.02;;
76152;SDS011;64897;50.816;4.422;2023-05-10T03:51:50;15.70;;;9.15;;
76152;SDS011;64897;50.816;4.422;2023-05-10T03:54:36;16.92;;;10.57;;
76152;SDS011;64897;50.816;4.422;2023-05-10T03:57:23;17.45;;;9.55;;
76152;SDS011;64897;50.816;4.422;2023-05-10T04:00:10;17.92;;;9.43;;
76152;SDS011;64897;50.816;4.422;2023-05-10T04:03:00;17.30;;;9.27;;
76152;SDS011;64897;50.816;4.422;2023-05-10T04:05:49;17.45;;;9.13;;
76152;SDS011;64897;50.816;4.422;2023-05-10T04:08:43;18.13;;;10.02;;
76152;SDS011;64897;50.816;4.422;2023-05-10T04:11:30;17.50;;;10.35;;
76152;SDS011;64897;50.816;4.422;2023-05-10T04:14:17;18.35;;;10.02;;
76152;SDS011;64897;50.816;4.422;2023-05-10T04:17:04;19.02;;;10.85;;
76152;SDS011;64897;50.816;4.422;2023-05-10T04:19:51;23.33;;;10.38;;
76152;SDS011;64897;50.816;4.422;2023-05-10T04:22:40;20.42;;;10.00;;
76152;SDS011;64897;50.816;4.422;2023-05-10T04:25:27;17.75;;;10.30;;
76152;SDS011;64897;50.816;4.422;2023-05-10T04:28:13;25.35;;;12.68;;
76152;SDS011;64897;50.816;4.422;2023-05-10T04:31:01;18.40;;;9.98;;
76152;SDS011;64897;50.816;4.422;2023-05-10T04:33:49;17.67;;;11.32;;
76152;SDS011;64897;50.816;4.422;2023-05-10T04:36:36;17.60;;;10.60;;
76152;SDS011;64897;50.816;4.422;2023-05-10T04:39:24;22.40;;;11.10;;
76152;SDS011;64897;50.816;4.422;2023-05-10T04:42:11;21.77;;;12.25;;
76152;SDS011;64897;50.816;4.422;2023-05-10T04:44:59;21.67;;;11.77;;
76152;SDS011;64897;50.816;4.422;2023-05-10T04:47:46;20.42;;;11.43;;
76152;SDS011;64897;50.816;4.422;2023-05-10T04:50:33;25.73;;;11.30;;
76152;SDS011;64897;50.816;4.422;2023-05-10T04:53:20;26.20;;;12.93;;
76152;SDS011;64897;50.816;4.422;2023-05-10T04:56:08;22.48;;;11.90;;
76152;SDS011;64897;50.816;4.422;2023-05-10T04:58:55;23.05;;;12.95;;
76152;SDS011;64897;50.816;4.422;2023-05-10T05:01:42;23.50;;;12.27;;
76152;SDS011;64897;50.816;4.422;2023-05-10T05:04:29;21.88;;;13.05;;
76152;SDS011;64897;50.816;4.422;2023-05-10T05:07:16;23.63;;;13.00;;
76152;SDS011;64897;50.816;4.422;2023-05-10T05:10:03;19.75;;;12.45;;
76152;SDS011;64897;50.816;4.422;2023-05-10T05:12:52;22.02;;;13.43;;
76152;SDS011;64897;50.816;4.422;2023-05-10T05:15:40;22.33;;;11.20;;
76152;SDS011;64897;50.816;4.422;2023-05-10T05:18:26;21.08;;;10.15;;
76152;SDS011;64897;50.816;4.422;2023-05-10T05:21:14;15.80;;;9.95;;
76152;SDS011;64897;50.816;4.422;2023-05-10T05:24:01;14.88;;;9.23;;
76152;SDS011;64897;50.816;4.422;2023-05-10T05:26:49;12.15;;;8.30;;
76152;SDS011;64897;50.816;4.422;2023-05-10T05:29:37;12.60;;;7.30;;
76152;SDS011;64897;50.816;4.422;2023-05-10T05:32:24;14.20;;;8.32;;
76152;SDS011;64897;50.816;4.422;2023-05-10T05:35:11;12.25;;;6.43;;
76152;SDS011;64897;50.816;4.422;2023-05-10T05:37:58;12.05;;;6.80;;
76152;SDS011;64897;50.816;4.422;2023-05-10T05:40:45;12.50;;;8.45;;
76152;SDS011;64897;50.816;4.422;2023-05-10T05:43:32;12.98;;;7.40;;
76152;SDS011;64897;50.816;4.422;2023-05-10T05:46:21;14.70;;;8.60;;
76152;SDS011;64897;50.816;4.422;2023-05-10T05:49:08;14.68;;;8.75;;
76152;SDS011;64897;50.816;4.422;2023-05-10T05:51:57;16.77;;;9.38;;
76152;SDS011;64897;50.816;4.422;2023-05-10T05:54:45;14.02;;;8.15;;
76152;SDS011;64897;50.816;4.422;2023-05-10T05:57:32;11.20;;;7.50;;
76152;SDS011;64897;50.816;4.422;2023-05-10T06:00:21;14.55;;;7.95;;
76152;SDS011;64897;50.816;4.422;2023-05-10T06:03:09;12.38;;;7.78;;
76152;SDS011;64897;50.816;4.422;2023-05-10T06:05:56;17.13;;;8.98;;
76152;SDS011;64897;50.816;4.422;2023-05-10T06:08:43;12.23;;;7.53;;
76152;SDS011;64897;50.816;4.422;2023-05-10T06:11:30;13.95;;;6.82;;
76152;SDS011;64897;50.816;4.422;2023-05-10T06:14:17;10.68;;;6.55;;
76152;SDS011;64897;50.816;4.422;2023-05-10T06:17:07;13.02;;;7.45;;
76152;SDS011;64897;50.816;4.422;2023-05-10T06:19:55;13.10;;;7.50;;
76152;SDS011;64897;50.816;4.422;2023-05-10T06:22:42;10.05;;;5.85;;
76152;SDS011;64897;50.816;4.422;2023-05-10T06:25:29;10.82;;;6.30;;
76152;SDS011;64897;50.816;4.422;2023-05-10T06:28:16;12.88;;;6.75;;
76152;SDS011;64897;50.816;4.422;2023-05-10T06:31:03;8.95;;;4.50;;
76152;SDS011;64897;50.816;4.422;2023-05-10T06:33:50;10.93;;;4.82;;
76152;SDS011;64897;50.816;4.422;2023-05-10T06:36:39;8.52;;;5.05;;
76152;SDS011;64897;50.816;4.422;2023-05-10T06:39:26;12.52;;;5.07;;
76152;SDS011;64897;50.816;4.422;2023-05-10T06:42:13;6.20;;;4.80;;
76152;SDS011;64897;50.816;4.422;2023-05-10T06:45:04;8.85;;;4.30;;
76152;SDS011;64897;50.816;4.422;2023-05-10T06:47:53;5.63;;;3.58;;
76152;SDS011;64897;50.816;4.422;2023-05-10T06:50:39;9.82;;;4.57;;
76152;SDS011;64897;50.816;4.422;2023-05-10T06:53:28;6.45;;;3.60;;
76152;SDS011;64897;50.816;4.422;2023-05-10T06:56:15;5.82;;;3.55;;
76152;SDS011;64897;50.816;4.422;2023-05-10T06:59:02;6.03;;;4.45;;
76152;SDS011;64897;50.816;4.422;2023-05-10T07:01:49;8.02;;;4.47;;
76152;SDS011;64897;50.816;4.422;2023-05-10T07:04:36;7.55;;;4.97;;
76152;SDS011;64897;50.816;4.422;2023-05-10T07:07:23;12.80;;;5.88;;
76152;SDS011;64897;50.816;4.422;2023-05-10T07:10:11;8.50;;;5.38;;
76152;SDS011;64897;50.816;4.422;2023-05-10T07:12:58;8.25;;;4.97;;
76152;SDS011;64897;50.816;4.422;2023-05-10T07:15:45;8.85;;;5.40;;
76152;SDS011;64897;50.816;4.422;2023-05-10T07:18:33;8.55;;;6.20;;
76152;SDS011;64897;50.816;4.422;2023-05-10T07:21:20;12.15;;;6.85;;
76152;SDS011;64897;50.816;4.422;2023-05-10T07:24:08;10.25;;;6.88;;
76152;SDS011;64897;50.816;4.422;2023-05-10T07:26:57;9.45;;;6.05;;
76152;SDS011;64897;50.816;4.422;2023-05-10T07:29:44;9.32;;;5.57;;
76152;SDS011;64897;50.816;4.422;2023-05-10T07:32:31;12.52;;;6.10;;
76152;SDS011;64897;50.816;4.422;2023-05-10T07:35:18;11.55;;;5.72;;
76152;SDS011;64897;50.816;4.422;2023-05-10T07:38:04;13.40;;;6.82;;
76152;SDS011;64897;50.816;4.422;2023-05-10T07:40:52;19.48;;;6.95;;
76152;SDS011;64897;50.816;4.422;2023-05-10T07:43:40;11.43;;;5.95;;
76152;SDS011;64897;50.816;4.422;2023-05-10T07:46:28;18.45;;;7.10;;
76152;SDS011;64897;50.816;4.422;2023-05-10T07:49:15;11.75;;;6.85;;
76152;SDS011;64897;50.816;4.422;2023-05-10T07:52:03;11.52;;;6.20;;
76152;SDS011;64897;50.816;4.422;2023-05-10T07:54:50;11.70;;;6.82;;
76152;SDS011;64897;50.816;4.422;2023-05-10T07:57:38;11.32;;;5.50;;
76152;SDS011;64897;50.816;4.422;2023-05-10T08:00:29;10.82;;;6.28;;
76152;SDS011;64897;50.816;4.422;2023-05-10T08:03:16;8.95;;;5.22;;
76152;SDS011;64897;50.816;4.422;2023-05-10T08:06:03;10.00;;;5.38;;
76152;SDS011;64897;50.816;4.422;2023-05-10T08:08:50;9.43;;;5.55;;
76152;SDS011;64897;50.816;4.422;2023-05-10T08:11:38;10.27;;;6.20;;
76152;SDS011;64897;50.816;4.422;2023-05-10T08:14:25;9.07;;;5.68;;
76152;SDS011;64897;50.816;4.422;2023-05-10T08:17:14;10.25;;;5.68;;
76152;SDS011;64897;50.816;4.422;2023-05-10T08:20:01;8.05;;;5.35;;
76152;SDS011;64897;50.816;4.422;2023-05-10T08:22:48;9.02;;;4.75;;
76152;SDS011;64897;50.816;4.422;2023-05-10T08:25:35;9.70;;;5.22;;
76152;SDS011;64897;50.816;4.422;2023-05-10T08:28:22;8.50;;;4.72;;
76152;SDS011;64897;50.816;4.422;2023-05-10T08:31:09;9.55;;;5.57;;
76152;SDS011;64897;50.816;4.422;2023-05-10T08:33:57;10.35;;;5.80;;
76152;SDS011;64897;50.816;4.422;2023-05-10T08:36:44;9.02;;;5.00;;
76152;SDS011;64897;50.816;4.422;2023-05-10T08:39:33;7.05;;;3.45;;
76152;SDS011;64897;50.816;4.422;2023-05-10T08:42:21;6.00;;;4.50;;
76152;SDS011;64897;50.816;4.422;2023-05-10T08:45:11;6.43;;;3.70;;
76152;SDS011;64897;50.816;4.422;2023-05-10T08:47:59;5.88;;;3.95;;
76152;SDS011;64897;50.816;4.422;2023-05-10T08:50:49;8.57;;;4.82;;
76152;SDS011;64897;50.816;4.422;2023-05-10T08:53:40;5.88;;;4.10;;
76152;SDS011;64897;50.816;4.422;2023-05-10T08:56:27;15.63;;;4.97;;
76152;SDS011;64897;50.816;4.422;2023-05-10T08:59:14;12.90;;;4.28;;
76152;SDS011;64897;50.816;4.422;2023-05-10T09:02:01;10.70;;;4.75;;
76152;SDS011;64897;50.816;4.422;2023-05-10T09:04:51;7.72;;;4.28;;
76152;SDS011;64897;50.816;4.422;2023-05-10T09:07:39;6.80;;;4.25;;
76152;SDS011;64897;50.816;4.422;2023-05-10T09:10:27;7.95;;;4.38;;
76152;SDS011;64897;50.816;4.422;2023-05-10T09:13:15;10.02;;;4.85;;
76152;SDS011;64897;50.816;4.422;2023-05-10T09:16:02;8.32;;;4.95;;
76152;SDS011;64897;50.816;4.422;2023-05-10T09:18:50;10.18;;;5.25;;
76152;SDS011;64897;50.816;4.422;2023-05-10T09:21:37;8.15;;;4.72;;
76152;SDS011;64897;50.816;4.422;2023-05-10T09:24:26;7.15;;;4.28;;
76152;SDS011;64897;50.816;4.422;2023-05-10T09:27:15;8.32;;;5.10;;
76152;SDS011;64897;50.816;4.422;2023-05-10T09:30:02;11.10;;;4.45;;
76152;SDS011;64897;50.816;4.422;2023-05-10T09:32:50;8.82;;;5.10;;
76152;SDS011;64897;50.816;4.422;2023-05-10T09:35:37;9.07;;;4.97;;
76152;SDS011;64897;50.816;4.422;2023-05-10T09:38:24;7.78;;;4.97;;
76152;SDS011;64897;50.816;4.422;2023-05-10T09:41:16;8.57;;;4.88;;
76152;SDS011;64897;50.816;4.422;2023-05-10T09:44:04;7.05;;;4.50;;
76152;SDS011;64897;50.816;4.422;2023-05-10T09:46:53;5.22;;;4.10;;
76152;SDS011;64897;50.816;4.422;2023-05-10T09:49:41;5.32;;;3.55;;
76152;SDS011;64897;50.816;4.422;2023-05-10T09:52:28;7.10;;;3.63;;
76152;SDS011;64897;50.816;4.422;2023-05-10T09:55:17;5.38;;;3.42;;
76152;SDS011;64897;50.816;4.422;2023-05-10T09:58:06;14.13;;;4.07;;
76152;SDS011;64897;50.816;4.422;2023-05-10T10:00:55;6.85;;;3.53;;
76152;SDS011;64897;50.816;4.422;2023-05-10T10:03:42;7.30;;;3.65;;
76152;SDS011;64897;50.816;4.422;2023-05-10T10:06:34;6.32;;;3.88;;
76152;SDS011;64897;50.816;4.422;2023-05-10T10:09:23;4.57;;;2.97;;
76152;SDS011;64897;50.816;4.422;2023-05-10T10:12:10;5.13;;;3.97;;
76152;SDS011;64897;50.816;4.422;2023-05-10T10:14:58;4.75;;;3.78;;
76152;SDS011;64897;50.816;4.422;2023-05-10T10:17:46;5.72;;;3.60;;
76152;SDS011;64897;50.816;4.422;2023-05-10T10:20:35;8.10;;;4.60;;
76152;SDS011;64897;50.816;4.422;2023-05-10T10:23:23;4.80;;;3.47;;
76152;SDS011;64897;50.816;4.422;2023-05-10T10:26:10;5.07;;;4.07;;
76152;SDS011;64897;50.816;4.422;2023-05-10T10:29:00;8.18;;;4.00;;
76152;SDS011;64897;50.816;4.422;2023-05-10T10:32:02;5.85;;;4.22;;
76152;SDS011;64897;50.816;4.422;2023-05-10T10:34:54;6.88;;;4.38;;
76152;SDS011;64897;50.816;4.422;2023-05-10T10:37:43;5.50;;;3.22;;
76152;SDS011;64897;50.816;4.422;2023-05-10T10:40:31;5.57;;;3.40;;
76152;SDS011;64897;50.816;4.422;2023-05-10T10:43:22;8.43;;;4.88;;
76152;SDS011;64897;50.816;4.422;2023-05-10T10:46:12;8.43;;;4.55;;
76152;SDS011;64897;50.816;4.422;2023-05-10T10:49:09;6.95;;;3.78;;
76152;SDS011;64897;50.816;4.422;2023-05-10T10:52:13;7.60;;;3.28;;
76152;SDS011;64897;50.816;4.422;2023-05-10T10:55:08;7.47;;;3.97;;
76152;SDS011;64897;50.816;4.422;2023-05-10T10:57:56;7.38;;;4.18;;
76152;SDS011;64897;50.816;4.422;2023-05-10T11:00:46;7.38;;;4.50;;
76152;SDS011;64897;50.816;4.422;2023-05-10T11:03:33;6.18;;;4.22;;
76152;SDS011;64897;50.816;4.422;2023-05-10T11:06:29;6.00;;;3.97;;
76152;SDS011;64897;50.816;4.422;2023-05-10T11:09:18;8.50;;;4.30;;
76152;SDS011;64897;50.816;4.422;2023-05-10T11:12:07;8.13;;;5.43;;
76152;SDS011;64897;50.816;4.422;2023-05-10T11:14:56;6.65;;;4.47;;
76152;SDS011;64897;50.816;4.422;2023-05-10T11:17:44;6.18;;;4.13;;
76152;SDS011;64897;50.816;4.422;2023-05-10T11:20:38;8.30;;;4.50;;
76152;SDS011;64897;50.816;4.422;2023-05-10T11:23:30;5.80;;;4.97;;
76152;SDS011;64897;50.816;4.422;2023-05-10T11:26:18;6.32;;;4.07;;
76152;SDS011;64897;50.816;4.422;2023-05-10T11:29:08;5.72;;;4.18;;
76152;SDS011;64897;50.816;4.422;2023-05-10T11:31:56;6.68;;;4.82;;
76152;SDS011;64897;50.816;4.422;2023-05-10T11:34:46;5.50;;;4.10;;
76152;SDS011;64897;50.816;4.422;2023-05-10T11:37:33;6.32;;;4.90;;
76152;SDS011;64897;50.816;4.422;2023-05-10T11:40:22;5.15;;;4.00;;
76152;SDS011;64897;50.816;4.422;2023-05-10T11:45:57;6.85;;;4.38;;
76152;SDS011;64897;50.816;4.422;2023-05-10T11:48:44;4.30;;;3.88;;
76152;SDS011;64897;50.816;4.422;2023-05-10T11:51:32;5.45;;;4.22;;
76152;SDS011;64897;50.816;4.422;2023-05-10T11:54:21;5.82;;;4.32;;
76152;SDS011;64897;50.816;4.422;2023-05-10T11:57:09;5.70;;;4.45;;
76152;SDS011;64897;50.816;4.422;2023-05-10T11:59:56;6.03;;;4.20;;
76152;SDS011;64897;50.816;4.422;2023-05-10T12:02:43;7.32;;;4.18;;
76152;SDS011;64897;50.816;4.422;2023-05-10T12:05:31;9.93;;;4.65;;
76152;SDS011;64897;50.816;4.422;2023-05-10T12:08:20;6.18;;;4.18;;
76152;SDS011;64897;50.816;4.422;2023-05-10T12:11:08;5.38;;;3.70;;
76152;SDS011;64897;50.816;4.422;2023-05-10T12:13:57;5.53;;;4.18;;
76152;SDS011;64897;50.816;4.422;2023-05-10T12:16:44;5.82;;;4.18;;
76152;SDS011;64897;50.816;4.422;2023-05-10T12:19:36;6.70;;;4.32;;
76152;SDS011;64897;50.816;4.422;2023-05-10T12:22:24;6.50;;;5.15;;
76152;SDS011;64897;50.816;4.422;2023-05-10T12:25:10;5.35;;;3.97;;
76152;SDS011;64897;50.816;4.422;2023-05-10T12:27:58;7.65;;;4.80;;
76152;SDS011;64897;50.816;4.422;2023-05-10T12:30:49;6.65;;;5.05;;
76152;SDS011;64897;50.816;4.422;2023-05-10T12:33:40;6.93;;;4.85;;
76152;SDS011;64897;50.816;4.422;2023-05-10T12:36:29;5.75;;;4.22;;
76152;SDS011;64897;50.816;4.422;2023-05-10T12:39:16;7.38;;;5.47;;
76152;SDS011;64897;50.816;4.422;2023-05-10T12:42:04;7.95;;;5.03;;
76152;SDS011;64897;50.816;4.422;2023-05-10T12:44:54;6.75;;;4.80;;
76152;SDS011;64897;50.816;4.422;2023-05-10T12:47:42;10.75;;;5.30;;
76152;SDS011;64897;50.816;4.422;2023-05-10T12:50:29;9.15;;;4.93;;
76152;SDS011;64897;50.816;4.422;2023-05-10T12:53:16;12.63;;;6.25;;
76152;SDS011;64897;50.816;4.422;2023-05-10T12:56:03;9.80;;;5.35;;
76152;SDS011;64897;50.816;4.422;2023-05-10T12:58:50;7.30;;;5.30;;
76152;SDS011;64897;50.816;4.422;2023-05-10T13:01:37;7.55;;;5.25;;
76152;SDS011;64897;50.816;4.422;2023-05-10T13:04:26;7.70;;;4.82;;
76152;SDS011;64897;50.816;4.422;2023-05-10T13:07:12;8.25;;;4.80;;
76152;SDS011;64897;50.816;4.422;2023-05-10T13:09:59;7.20;;;5.05;;
76152;SDS011;64897;50.816;4.422;2023-05-10T13:12:48;6.57;;;4.20;;
76152;SDS011;64897;50.816;4.422;2023-05-10T13:15:35;7.13;;;4.70;;
76152;SDS011;64897;50.816;4.422;2023-05-10T13:18:22;9.13;;;5.55;;
76152;SDS011;64897;50.816;4.422;2023-05-10T13:21:11;9.45;;;4.07;;
76152;SDS011;64897;50.816;4.422;2023-05-10T13:23:58;4.90;;;4.10;;
76152;SDS011;64897;50.816;4.422;2023-05-10T13:26:45;8.85;;;3.65;;
76152;SDS011;64897;50.816;4.422;2023-05-10T13:29:33;6.13;;;3.63;;
76152;SDS011;64897;50.816;4.422;2023-05-10T13:32:20;5.25;;;3.55;;
76152;SDS011;64897;50.816;4.422;2023-05-10T13:35:07;5.57;;;3.70;;
76152;SDS011;64897;50.816;4.422;2023-05-10T13:37:56;5.57;;;3.65;;
76152;SDS011;64897;50.816;4.422;2023-05-10T13:40:43;6.35;;;4.10;;
76152;SDS011;64897;50.816;4.422;2023-05-10T13:43:30;5.82;;;4.45;;
76152;SDS011;64897;50.816;4.422;2023-05-10T13:46:17;7.63;;;4.95;;
76152;SDS011;64897;50.816;4.422;2023-05-10T13:49:04;7.53;;;5.20;;
76152;SDS011;64897;50.816;4.422;2023-05-10T13:51:51;9.27;;;5.45;;
76152;SDS011;64897;50.816;4.422;2023-05-10T13:54:40;8.13;;;5.05;;
76152;SDS011;64897;50.816;4.422;2023-05-10T13:57:27;11.35;;;5.13;;
76152;SDS011;64897;50.816;4.422;2023-05-10T14:00:14;7.53;;;4.88;;
76152;SDS011;64897;50.816;4.422;2023-05-10T14:03:02;7.32;;;5.50;;
76152;SDS011;64897;50.816;4.422;2023-05-10T14:05:51;10.40;;;6.82;;
76152;SDS011;64897;50.816;4.422;2023-05-10T14:08:38;9.45;;;6.22;;
76152;SDS011;64897;50.816;4.422;2023-05-10T14:11:26;10.45;;;6.07;;
76152;SDS011;64897;50.816;4.422;2023-05-10T14:14:13;10.50;;;6.53;;
76152;SDS011;64897;50.816;4.422;2023-05-10T14:17:00;8.02;;;5.45;;
76152;SDS011;64897;50.816;4.422;2023-05-10T14:19:47;11.25;;;6.38;;
76152;SDS011;64897;50.816;4.422;2023-05-10T14:22:34;9.90;;;6.30;;
76152;SDS011;64897;50.816;4.422;2023-05-10T14:25:21;10.68;;;7.03;;
76152;SDS011;64897;50.816;4.422;2023-05-10T14:28:09;12.05;;;7.30;;
76152;SDS011;64897;50.816;4.422;2023-05-10T14:30:57;10.25;;;7.43;;
76152;SDS011;64897;50.816;4.422;2023-05-10T14:33:44;14.38;;;7.88;;
76152;SDS011;64897;50.816;4.422;2023-05-10T14:36:31;14.45;;;9.05;;
76152;SDS011;64897;50.816;4.422;2023-05-10T14:39:18;15.48;;;8.70;;
76152;SDS011;64897;50.816;4.422;2023-05-10T14:42:05;11.70;;;7.93;;
76152;SDS011;64897;50.816;4.422;2023-05-10T14:44:53;10.02;;;7.55;;
76152;SDS011;64897;50.816;4.422;2023-05-10T14:47:40;13.15;;;7.45;;
76152;SDS011;64897;50.816;4.422;2023-05-10T14:50:27;11.68;;;7.22;;
76152;SDS011;64897;50.816;4.422;2023-05-10T14:53:14;13.00;;;7.70;;
76152;SDS011;64897;50.816;4.422;2023-05-10T14:56:01;13.48;;;8.18;;
76152;SDS011;64897;50.816;4.422;2023-05-10T14:58:49;16.58;;;8.57;;
76152;SDS011;64897;50.816;4.422;2023-05-10T15:01:38;14.02;;;8.45;;
76152;SDS011;64897;50.816;4.422;2023-05-10T15:04:26;15.15;;;8.40;;
76152;SDS011;64897;50.816;4.422;2023-05-10T15:07:13;17.00;;;8.20;;
76152;SDS011;64897;50.816;4.422;2023-05-10T15:10:02;15.50;;;8.95;;
76152;SDS011;64897;50.816;4.422;2023-05-10T15:12:50;11.70;;;7.00;;
76152;SDS011;64897;50.816;4.422;2023-05-10T15:15:37;10.30;;;6.95;;
76152;SDS011;64897;50.816;4.422;2023-05-10T15:18:26;10.30;;;5.50;;
76152;SDS011;64897;50.816;4.422;2023-05-10T15:21:13;7.40;;;4.90;;
76152;SDS011;64897;50.816;4.422;2023-05-10T15:24:01;6.32;;;4.40;;
76152;SDS011;64897;50.816;4.422;2023-05-10T15:26:48;11.23;;;4.70;;
76152;SDS011;64897;50.816;4.422;2023-05-10T15:29:34;7.78;;;4.43;;
76152;SDS011;64897;50.816;4.422;2023-05-10T15:32:22;8.27;;;4.90;;
76152;SDS011;64897;50.816;4.422;2023-05-10T15:35:10;9.20;;;3.50;;
76152;SDS011;64897;50.816;4.422;2023-05-10T15:37:57;5.45;;;3.72;;
76152;SDS011;64897;50.816;4.422;2023-05-10T15:40:44;7.82;;;3.78;;
76152;SDS011;64897;50.816;4.422;2023-05-10T15:43:31;6.70;;;3.53;;
76152;SDS011;64897;50.816;4.422;2023-05-10T15:46:18;7.25;;;3.65;;
76152;SDS011;64897;50.816;4.422;2023-05-10T15:49:05;6.97;;;3.67;;
76152;SDS011;64897;50.816;4.422;2023-05-10T15:51:53;8.30;;;3.83;;
76152;SDS011;64897;50.816;4.422;2023-05-10T15:54:41;4.65;;;3.50;;
76152;SDS011;64897;50.816;4.422;2023-05-10T15:57:27;6.30;;;3.78;;
76152;SDS011;64897;50.816;4.422;2023-05-10T16:00:16;11.05;;;3.55;;
76152;SDS011;64897;50.816;4.422;2023-05-10T16:03:03;8.13;;;3.58;;
76152;SDS011;64897;50.816;4.422;2023-05-10T16:05:50;6.50;;;3.40;;
76152;SDS011;64897;50.816;4.422;2023-05-10T16:08:38;10.00;;;3.72;;
76152;SDS011;64897;50.816;4.422;2023-05-10T16:11:25;6.00;;;2.85;;
76152;SDS011;64897;50.816;4.422;2023-05-10T16:14:12;10.75;;;3.60;;
76152;SDS011;64897;50.816;4.422;2023-05-10T16:17:00;8.60;;;3.47;;
76152;SDS011;64897;50.816;4.422;2023-05-10T16:19:48;8.65;;;3.95;;
76152;SDS011;64897;50.816;4.422;2023-05-10T16:22:35;8.23;;;4.20;;
76152;SDS011;64897;50.816;4.422;2023-05-10T16:25:23;10.55;;;5.25;;
76152;SDS011;64897;50.816;4.422;2023-05-10T16:28:10;9.80;;;4.68;;
76152;SDS011;64897;50.816;4.422;2023-05-10T16:30:56;10.77;;;6.00;;
76152;SDS011;64897;50.816;4.422;2023-05-10T16:33:44;8.50;;;5.25;;
76152;SDS011;64897;50.816;4.422;2023-05-10T16:36:30;11.93;;;5.82;;
76152;SDS011;64897;50.816;4.422;2023-05-10T16:39:17;10.50;;;5.10;;
76152;SDS011;64897;50.816;4.422;2023-05-10T16:42:06;10.63;;;6.00;;
76152;SDS011;64897;50.816;4.422;2023-05-10T16:44:53;11.13;;;5.80;;
76152;SDS011;64897;50.816;4.422;2023-05-10T16:47:40;13.88;;;6.07;;
76152;SDS011;64897;50.816;4.422;2023-05-10T16:50:27;11.20;;;6.25;;
76152;SDS011;64897;50.816;4.422;2023-05-10T16:53:14;15.60;;;6.70;;